Home > Products > Valid Products > MTR

000
SAUS45 KRIW 300657
MTRP60
METAR KP60 300656Z AUTO 00000KT 07/06 A3048 RMK AO1 SLP260 T00670056
401890061





000
SAUS45 KRIW 300557
MTRP60
METAR KP60 300556Z AUTO 32004KT 07/06 A3047 RMK AO1 SLP256 T00720061
10128 20067 51009





000
SAUS45 KRIW 300457
MTRP60
METAR KP60 300456Z AUTO 00000KT 08/07 A3047 RMK AO1 SLP255 T00780072





000
SAUS45 KRIW 300357
MTRP60
METAR KP60 300356Z AUTO 30003KT 09/08 A3046 RMK AO1 SLP250 T00940083





000
SAUS45 KRIW 300258
MTRP60
METAR KP60 300256Z AUTO 00000KT 11/09 A3044 RMK AO1 SLP241 T01110094
55002





000
SAUS45 KRIW 300157
MTRP60
METAR KP60 300156Z AUTO 32003KT 13/09 A3043 RMK AO1 SLP239 T01280094





000
SAUS45 KRIW 300057
MTRP60
METAR KP60 300056Z AUTO VRB06KT 13/08 A3045 RMK AO1 SLP246 T01280083





000
SAUS45 KRIW 292357
MTRP60
METAR KP60 292356Z AUTO 32003KT 12/10 A3045 RMK AO1 SLP247 P0002
60004 T01220100 10189 20117 58004





000
SAUS45 KRIW 292257
MTRP60
METAR KP60 292256Z AUTO 29007KT 260V340 13/09 A3046 RMK AO1 SLP246
P0002 T01280089





000
SAUS45 KRIW 292157
MTRP60
METAR KP60 292156Z AUTO 13005KT 19/09 A3045 RMK AO1 SLP229 T01890089





000
SAUS45 KRIW 292057
MTRP60
METAR KP60 292056Z AUTO VRB03KT 18/09 A3046 RMK AO1 SLP235 T01780089
58003





000
SAUS45 KRIW 291957
MTRP60
METAR KP60 291956Z AUTO 00000KT 16/08 A3047 RMK AO1 SLP240 T01610078





000
SAUS45 KRIW 291857
MTRP60
METAR KP60 291856Z AUTO 11004KT 16/09 A3048 RMK AO1 SLP240 T01560089





000
SAUS45 KRIW 291757
MTRP60
METAR KP60 291756Z AUTO 09004KT 16/08 A3047 RMK AO1 SLP239 60001
T01560078 10161 20106 53000





000
SAUS45 KRIW 291657
MTRP60
METAR KP60 291656Z AUTO 00000KT 15/08 A3047 RMK AO1 SLP239 T01500078





000
SAUS45 KRIW 291557
MTRP60
METAR KP60 291556Z AUTO 00000KT 14/08 A3047 RMK AO1 SLP236 T01440078





000
SAUS45 KRIW 291457
MTRP60
METAR KP60 291456Z AUTO 00000KT 13/07 A3047 RMK AO1 SLP236 60001
T01330072 58002





000
SAUS45 KRIW 291357
MTRP60
METAR KP60 291356Z AUTO 00000KT 11/09 A3048 RMK AO1 SLP242 T01110094





000
SAUS45 KRIW 291257
MTRP60
METAR KP60 291256Z AUTO 00000KT 11/09 A3048 RMK AO1 SLP240 P0001
T01060089





000
SAUS45 KRIW 291157
MTRP60
METAR KP60 291156Z AUTO 00000KT 11/09 A3048 RMK AO1 SLP236 60001
70001 T01110094 10144 20111 56006





000
SAUS45 KRIW 291057
MTRP60
METAR KP60 291056Z AUTO 00000KT 12/08 A3049 RMK AO1 SLP231 T01220083





000
SAUS45 KRIW 290957
MTRP60
METAR KP60 290956Z AUTO 00000KT 12/08 A3048 RMK AO1 SLP221 T01220083





000
SAUS45 KRIW 290857
MTRP60
METAR KP60 290856Z AUTO VRB04KT 12/08 A3050 RMK AO1 SLP234 P0001
60001 T01170083 58001





000
SAUS45 KRIW 290757
MTRP60
METAR KP60 290756Z AUTO 00000KT 12/09 A3051 RMK AO1 SLP243 T01220089





000
SAUS45 KRIW 290658
MTRP60
METAR KP60 290656Z AUTO VRB04KT 14/07 A3051 RMK AO1 SLP237 T01390067
402610033





000
SAUS45 KRIW 290557
MTRP60
METAR KP60 290556Z AUTO VRB03KT 14/06 A3051 RMK AO1 SLP237 T01440061
10211 20144 50004





000
SAUS45 KRIW 290458
MTRP60
METAR KP60 290456Z AUTO 15/06 A3052 RMK AO1 SLP242 T01500061





000
SAUS45 KRIW 290357
MTRP60
METAR KP60 290356Z AUTO VRB06KT 16/06 A3051 RMK AO1 SLP245 T01610061





000
SAUS45 KRIW 290257
MTRP60
METAR KP60 290256Z AUTO VRB03KT 17/04 A3049 RMK AO1 SLP240 T01720039
55001





000
SAUS45 KRIW 290157
MTRP60
METAR KP60 290156Z AUTO 00000KT 18/03 A3049 RMK AO1 SLP244 T01830033





000
SAUS45 KRIW 290057
MTRP60
METAR KP60 290056Z AUTO 30003KT 19/04 A3049 RMK AO1 SLP257 T01940039





000
SAUS45 KRIW 282357
MTRP60
METAR KP60 282356Z AUTO 00000KT 21/03 A3050 RMK AO1 SLP261 T02060028
10261 20206 53006





000
SAUS45 KRIW 282257
MTRP60
METAR KP60 282256Z AUTO 27008KT 23/00 A3048 RMK AO1 SLP248 T02280000





000
SAUS45 KRIW 282157
MTRP60
METAR KP60 282156Z AUTO VRB04KT 25/00 A3045 RMK AO1 SLP232 T02500000





000
SAUS45 KRIW 282058
MTRP60
METAR KP60 282056Z AUTO 00000KT 25/01 A3047 RMK AO1 SLP237 T02500006
56012





000
SAUS45 KRIW 281958
MTRP60
METAR KP60 281956Z AUTO 00000KT 21/09 A3048 RMK AO1 SLP249 T02110094





000
SAUS45 KRIW 281858
MTRP60
METAR KP60 281856Z AUTO VRB03KT 22/07 A3050 RMK AO1 SLP248 T02220072





000
SAUS45 KRIW 281758
MTRP60
METAR KP60 281756Z AUTO 11004KT 21/02 A3052 RMK AO1 SLP257 T02060017
10222 20033 58002





000
SAUS45 KRIW 281658
MTRP60
METAR KP60 281656Z AUTO 11003KT 21/01 A3052 RMK AO1 SLP254 T02060011





000
SAUS45 KRIW 281557
MTRP60
METAR KP60 281556Z AUTO 00000KT 17/02 A3053 RMK AO1 SLP260 T01720022





000
SAUS45 KRIW 281457
MTRP60
METAR KP60 281456Z AUTO 00000KT 14/04 A3053 RMK AO1 SLP261 T01440044
50001





000
SAUS45 KRIW 281357
MTRP60
METAR KP60 281356Z AUTO 00000KT 11/05 A3053 RMK AO1 SLP257 T01110050





000
SAUS45 KRIW 281257
MTRP60
METAR KP60 281256Z AUTO 00000KT 06/02 A3053 RMK AO1 SLP257 T00610017





000
SAUS45 KRIW 281158
MTRP60
METAR KP60 281156Z AUTO 32003KT 04/01 A3052 RMK AO1 SLP264 T00390006
10089 20033 53002





000
SAUS45 KRIW 281057
MTRP60
METAR KP60 281056Z AUTO 32003KT 04/01 A3051 RMK AO1 SLP258 T00390011





000
SAUS45 KRIW 280957
MTRP60
METAR KP60 280956Z AUTO 00000KT 05/01 A3050 RMK AO1 SLP256 T00500011





000
SAUS45 KRIW 280857
MTRP60
METAR KP60 280856Z AUTO 32003KT 06/01 A3051 RMK AO1 SLP256 T00560011
58000





000
SAUS45 KRIW 280757
MTRP60
METAR KP60 280756Z AUTO 32003KT 07/02 A3052 RMK AO1 SLP254 T00670017





000
SAUS45 KRIW 280658
MTRP60
METAR KP60 280656Z AUTO 32003KT 07/02 A3052 RMK AO1 SLP259 T00720022
402500006





000
SAUS45 KRIW 280558
MTRP60
METAR KP60 280556Z AUTO 00000KT 08/02 A3051 RMK AO1 SLP259 T00830022
10233 20083 51011





000
SAUS45 KRIW 280458
MTRP60
METAR KP60 280456Z AUTO 31003KT 11/02 A3051 RMK AO1 SLP259 T01060022





000
SAUS45 KRIW 280358
MTRP60
METAR KP60 280356Z AUTO 00000KT 11/03 A3049 RMK AO1 SLP257 T01110033





000
SAUS45 KRIW 280258
MTRP60
METAR KP60 280256Z AUTO 31004KT 14/04 A3047 RMK AO1 SLP247 T01390044
55001





000
SAUS45 KRIW 280158
MTRP60
METAR KP60 280156Z AUTO 00000KT 20/03 A3046 RMK AO1 SLP238 T02000033





000
SAUS45 KRIW 280058
MTRP60
METAR KP60 280056Z AUTO 00000KT 23/03 A3046 RMK AO1 SLP245 T02330028





000
SAUS45 KRIW 272358
MTRP60
METAR KP60 272356Z AUTO 10003KT 23/01 A3047 RMK AO1 SLP253 T02280011
10250 20183 57005





000
SAUS45 KRIW 272258
MTRP60
METAR KP60 272256Z AUTO VRB05KT 24/01 A3048 RMK AO1 SLP254 T02390006





000
SAUS45 KRIW 272158
MTRP60
METAR KP60 272156Z AUTO VRB03KT 23/11 A3048 RMK AO1 SLP254 T02280106





000
SAUS45 KRIW 272058
MTRP60
METAR KP60 272056Z AUTO VRB05KT 23/07 A3049 RMK AO1 SLP255 T02330072
56009





000
SAUS45 KRIW 271957
MTRP60
METAR KP60 271956Z AUTO VRB03KT 23/08 A3050 RMK AO1 SLP258 T02280078





000
SAUS45 KRIW 271857
MTRP60
METAR KP60 271856Z AUTO VRB04KT 22/08 A3051 RMK AO1 SLP261 T02170078





000
SAUS45 KRIW 271757
MTRP60
METAR KP60 271756Z AUTO VRB03KT 19/01 A3053 RMK AO1 SLP270 T01940011
10194 20006 58003





000
SAUS45 KRIW 271657
MTRP60
METAR KP60 271656Z AUTO VRB03KT 16/00 A3054 RMK AO1 SLP275 T01610000





000
SAUS45 KRIW 271557
MTRP60
METAR KP60 271556Z AUTO 12003KT 14/04 A3054 RMK AO1 SLP277 T01440044





000
SAUS45 KRIW 271457
MTRP60
METAR KP60 271456Z AUTO 13003KT 12/06 A3054 RMK AO1 SLP274 T01220056
51008





000
SAUS45 KRIW 271357
MTRP60
METAR KP60 271356Z AUTO 00000KT 08/03 A3053 RMK AO1 SLP263 T00830033





000
SAUS45 KRIW 271257
MTRP60
METAR KP60 271256Z AUTO 00000KT 02/M01 A3053 RMK AO1 SLP271
T00221006





000
SAUS45 KRIW 271200
MTRP60
METAR KP60 271156Z AUTO 32003KT 01/M01 A3051 RMK AO1 SLP269
T00111011 10061 20011 52005





000
SAUS45 KRIW 271057
MTRP60
METAR KP60 271056Z AUTO 00000KT 02/M01 A3050 RMK AO1 SLP264
T00171011





000
SAUS45 KRIW 270958
MTRP60
METAR KP60 270956Z AUTO 00000KT 02/M01 A3050 RMK AO1 SLP262
T00221011





000
SAUS45 KRIW 270858
MTRP60
METAR KP60 270856Z AUTO 00000KT 03/M01 A3049 RMK AO1 SLP257
T00331011 51004





000
SAUS45 KRIW 270757
MTRP60
METAR KP60 270756Z AUTO 33003KT 04/M01 A3049 RMK AO1 SLP263
T00391011





    US Dept of Commerce
    National Oceanic and Atmospheric Administration
    National Weather Service
    1325 East West Highway
    Silver Spring, MD 20910
    Page Author: NWS Internet Services Team
Disclaimer
Information Quality
Credits
Glossary
Privacy Policy
Freedom of Information Act (FOIA)
About Us
Career Opportunities